| time (UTC) | temp C | wind direction | speed KPH | gust KPH | rain 1hr cm | rain 24hr cm | rain mn cm | humidity % | barometer mb |
| 20260505140219 | 17 | 40 | 14.5 | 0.0 | 0.00 | 0.00 | 0.00 | 63 | 1007.0 |
| 20260505130213 | 18 | 10 | 19.3 | 0.0 | 0.00 | 0.00 | 0.00 | 55 | 1007.0 |
| 20260505123210 | 20 | 340 | 9.7 | 0.0 | 0.00 | 0.00 | 0.00 | 49 | 1007.0 |
| 20260505121623 | 20 | 30 | 8.0 | 0.0 | 0.00 | 0.00 | 0.00 | 45 | |
| 20260505120211 | 20 | 0 | 3.2 | 0.0 | 0.00 | 0.00 | 0.00 | 45 | 1007.0 |
| 20260505114102 | 20 | 70 | 8.0 | 0.0 | 0.00 | 0.00 | 0.00 | 45 | 1007.0 |
| 20260505113209 | 20 | 40 | 9.7 | 0.0 | 0.00 | 0.00 | 0.00 | 45 | 1007.0 |
| 20260505111622 | 22 | 330 | 8.0 | 0.0 | 0.00 | 0.00 | 0.00 | 40 | |
| 20260505110223 | 22 | 0 | 4.8 | 0.0 | 0.00 | 0.00 | 0.00 | 40 | 1007.0 |
| 20260505101623 | 20 | 350 | 8.0 | 0.0 | 0.00 | 0.00 | 0.00 | 45 | |
| 20260505100212 | 20 | 0 | 3.2 | 0.0 | 0.00 | 0.00 | 0.00 | 45 | 1008.0 |
| 20260505093210 | 20 | 30 | 11.3 | 0.0 | 0.00 | 0.00 | 0.00 | 45 | 1008.0 |
| 20260505091623 | 20 | 30 | 11.3 | 0.0 | 0.00 | 0.00 | 0.00 | 45 | |
| 20260505090212 | 20 | 40 | 11.3 | 0.0 | 0.00 | 0.00 | 0.00 | 49 | 1009.0 |
| 20260505083210 | 18 | 50 | 8.0 | 0.0 | 0.00 | 0.00 | 0.00 | 52 | 1009.0 |
| 20260505081622 | 17 | 30 | 11.3 | 0.0 | 0.00 | 0.00 | 0.00 | 55 | |
| 20260505080217 | 17 | 30 | 11.3 | 0.0 | 0.00 | 0.00 | 0.00 | 55 | 1009.0 |
| 20260505073210 | 16 | 30 | 11.3 | 0.0 | 0.00 | 0.00 | 0.00 | 63 | 1009.0 |
| 20260505071622 | 16 | 30 | 11.3 | 0.0 | 0.00 | 0.00 | 0.00 | 63 | |
| 20260505070304 | 16 | 30 | 9.7 | 0.0 | 0.00 | 0.00 | 0.00 | 63 | 1009.0 |
| 20260505063209 | 15 | 20 | 9.7 | 0.0 | 0.00 | 0.00 | 0.00 | 62 | 1010.0 |
| 20260505061623 | 13 | 340 | 3.2 | 0.0 | 0.00 | 0.00 | 0.00 | 71 | |
| 20260505060211 | 13 | 350 | 4.8 | 0.0 | 0.00 | 0.00 | 0.00 | 71 | 1010.0 |
| 20260505051623 | 12 | 200 | 3.2 | 0.0 | 0.00 | 0.00 | 0.00 | 71 | |
| 20260505050217 | 12 | 140 | 4.8 | 0.0 | 0.00 | 0.00 | 0.00 | 81 | 1010.0 |
| 20260505041622 | 13 | 40 | 8.0 | 0.0 | 0.00 | 0.00 | 0.00 | 67 | |
| 20260505040211 | 13 | 30 | 4.8 | 0.0 | 0.00 | 0.00 | 0.00 | 67 | 1009.0 |
| 20260505032403 | 13 | 20 | 8.0 | 0.0 | 0.00 | 0.00 | 0.00 | 67 | 1010.0 |
| 20260505031623 | 13 | 60 | 8.0 | 0.0 | 0.00 | 0.00 | 0.00 | 67 | |
| 20260505030212 | 13 | 50 | 4.8 | 0.0 | 0.00 | 0.00 | 0.00 | 67 | 1010.0 |
| 20260505021622 | 15 | 40 | 8.0 | 0.0 | 0.00 | 0.00 | 0.00 | 62 | |
| 20260505020210 | 15 | 20 | 9.7 | 0.0 | 0.00 | 0.00 | 0.00 | 62 | 1010.0 |
| 20260505011624 | 13 | 40 | 8.0 | 0.0 | 0.00 | 0.00 | 0.00 | 67 | |
| 20260505010210 | 13 | 30 | 9.7 | 0.0 | 0.00 | 0.00 | 0.00 | 67 | 1011.0 |
| 20260505001623 | 12 | 40 | 3.2 | 0.0 | 0.00 | 0.00 | 0.00 | 71 | |
| 20260505000212 | 13 | 0 | 3.2 | 0.0 | 0.00 | 0.00 | 0.00 | 67 | 1011.0 |
| 20260504231623 | 15 | 330 | 8.0 | 0.0 | 0.00 | 0.00 | 0.00 | 62 | |
| 20260504230219 | 15 | 320 | 8.0 | 0.0 | 0.00 | 0.00 | 0.00 | 62 | 1012.0 |
| 20260504221623 | 16 | 290 | 3.2 | 0.0 | 0.00 | 0.00 | 0.00 | 59 | |
| 20260504220218 | 16 | 0 | 1.6 | 0.0 | 0.00 | 0.00 | 0.00 | 59 | 1012.0 |
| 20260504211622 | 16 | 90 | 11.3 | 0.0 | 0.00 | 0.00 | 0.00 | 59 | |
| 20260504210213 | 16 | 80 | 9.7 | 0.0 | 0.00 | 0.00 | 0.00 | 59 | 1012.0 |
| 20260504201621 | 17 | 50 | 11.3 | 0.0 | 0.00 | 0.00 | 0.00 | 55 | |
| 20260504200211 | 17 | 60 | 12.9 | 0.0 | 0.00 | 0.00 | 0.00 | 55 | 1012.0 |
| 20260504191623 | 16 | 70 | 3.2 | 0.0 | 0.00 | 0.00 | 0.00 | 48 | |
| 20260504190219 | 16 | 0 | 0.0 | 0.0 | 0.00 | 0.00 | 0.00 | 48 | 1012.0 |
| 20260504183210 | 16 | 0 | 1.6 | 0.0 | 0.00 | 0.00 | 0.00 | 51 | 1012.0 |
| 20260504181623 | 18 | 270 | 3.2 | 0.0 | 0.00 | 0.00 | 0.00 | 39 | |
| 20260504180212 | 17 | 0 | 1.6 | 0.0 | 0.00 | 0.00 | 0.00 | 42 | 1012.0 |
| 20260504173209 | 20 | 0 | 3.2 | 0.0 | 0.00 | 0.00 | 0.00 | 34 | 1012.0 |
| 20260504171624 | 22 | 190 | 3.2 | 0.0 | 0.00 | 0.00 | 0.00 | 28 | |
| 20260504170212 | 22 | 0 | 3.2 | 0.0 | 0.00 | 0.00 | 0.00 | 30 | 1012.0 |
| 20260504160219 | 21 | 280 | 8.0 | 0.0 | 0.00 | 0.00 | 0.00 | 32 | 1012.0 |
| 20260504150210 | 21 | 290 | 12.9 | 0.0 | 0.00 | 0.00 | 0.00 | 32 | 1013.0 |